METAR UND TAF INFORMATION
HEMA 161000Z 36022KT CAVOK 32/17 Q1008 NOSIG

 FLUGHAFENKARTE

 RUNWAY INFORMATION
Runway 15 Runway length 9843 ft Runway width 148 ft
Runway elevation 247 ft Runway displaced threshold 0 ft Runway heading 150
Runway 33 Runway length 9843 ft Runway width 148 ft
Runway elevation 233 ft Runway displaced threshold 0 ft Runway heading 330

 AIRPORT FREQUENCIES
Type APP Name APP Frequency 121 MHZ
Type EMR Name FIRE Frequency 121.9 MHZ
Type GND Name GND Frequency 121.9 MHZ
Type TWR Name TWR Frequency 121 MHZ

 AIRPORT NEAR NAVIGATION AIDS
Type VOR-DME Name Marsa Alam Frequency 115500 KHZ